Colorado Springs Aviation Decision Support Information(Rapid Prototype)

Last Page Refresh(page does not auto refresh):
000
FTUS45 KPUB 300520
TAFCOS
TAF
KCOS 300520Z 3006/3106 03006KT P6SM SCT150 BKN200
     FM301700 17009KT P6SM SCT200
     FM302100 18014KT P6SM SCT100 BKN150
     FM310200 34010KT P6SM BKN140=

Please provide any comments or suggestion to the web master email addresse below.


USA.gov is the U.S. government's official web portal to all federal, state and local government web resources and services.